Time;durP1;ratioP1;P1;durP2;ratioP2;P2;SDS_P1;SDS_P2;PMS_P1;PMS_P2;Temp;Humidity;BMP_temperature;BMP_pressure;BME280_temperature;BME280_humidity;BME280_pressure;Samples;Min_cycle;Max_cycle;Signal;HPM_P1;HPM_P2
2022/12/19 00:01:42;;;;;;;74.93;34.92;;;0.50;99.90;;;;;;5028427;28;20033;-64
2022/12/19 00:04:10;;;;;;;68.78;35.47;;;0.50;99.90;;;;;;5026873;28;20053;-64
2022/12/19 00:06:37;;;;;;;68.80;33.92;;;0.60;99.90;;;;;;5025397;28;20128;-64
2022/12/19 00:09:04;;;;;;;74.30;33.60;;;0.60;99.90;;;;;;5027522;28;20159;-63
2022/12/19 00:11:29;;;;;;;71.43;35.60;;;0.60;99.90;;;;;;5026669;28;20329;-64
2022/12/19 00:13:55;;;;;;;74.03;35.25;;;0.60;99.90;;;;;;5026574;28;20059;-63
2022/12/19 00:16:26;;;;;;;70.03;35.70;;;0.60;99.90;;;;;;5040291;28;20500;-64
2022/12/19 00:18:53;;;;;;;72.35;35.25;;;0.60;99.90;;;;;;5028043;28;20025;-64
2022/12/19 00:21:21;;;;;;;71.88;36.30;;;0.60;99.90;;;;;;5025642;28;20026;-64
2022/12/19 00:23:47;;;;;;;76.28;36.33;;;0.60;99.90;;;;;;5025104;28;20445;-64
2022/12/19 00:26:33;;;;;;;80.13;38.28;;;0.60;99.90;;;;;;5025968;28;20036;-64
2022/12/19 00:29:02;;;;;;;78.88;38.60;;;0.60;99.90;;;;;;5041533;28;20378;-64
2022/12/19 00:31:29;;;;;;;74.53;37.63;;;0.60;99.90;;;;;;5023674;28;20036;-64
2022/12/19 00:33:55;;;;;;;80.30;40.20;;;0.60;99.90;;;;;;5025032;28;20045;-63
2022/12/19 00:36:23;;;;;;;76.60;38.85;;;0.70;99.90;;;;;;5025047;28;20033;-64
2022/12/19 00:38:51;;;;;;;81.75;38.58;;;0.70;99.90;;;;;;5024289;28;20022;-64
2022/12/19 00:41:19;;;;;;;82.80;38.97;;;0.60;99.90;;;;;;5025257;28;20385;-64
2022/12/19 00:43:52;;;;;;;82.05;38.53;;;0.70;99.90;;;;;;5027171;28;20025;-63
2022/12/19 00:46:18;;;;;;;84.60;38.65;;;0.70;99.90;;;;;;5024968;28;20021;-64
2022/12/19 00:48:43;;;;;;;75.57;36.03;;;0.60;99.90;;;;;;5025423;28;20040;-64
2022/12/19 00:51:12;;;;;;;82.75;39.38;;;0.70;99.90;;;;;;5024938;28;20114;-64
2022/12/19 00:53:38;;;;;;;84.28;40.95;;;0.70;99.90;;;;;;5026916;28;20025;-64
2022/12/19 00:56:07;;;;;;;88.10;40.90;;;0.70;99.90;;;;;;5041371;28;20381;-64
2022/12/19 00:58:33;;;;;;;83.75;40.47;;;0.80;99.90;;;;;;5024799;28;20033;-64
2022/12/19 01:01:08;;;;;;;78.70;40.80;;;0.80;99.90;;;;;;5027057;28;20034;-64
2022/12/19 01:03:34;;;;;;;82.63;38.95;;;0.90;99.90;;;;;;5022704;28;20108;-64
2022/12/19 01:06:00;;;;;;;85.57;42.13;;;0.90;99.90;;;;;;5026137;28;20430;-64
2022/12/19 01:08:26;;;;;;;88.55;41.97;;;1.00;99.90;;;;;;5027421;28;20041;-64
2022/12/19 01:10:52;;;;;;;91.90;45.22;;;1.00;99.90;;;;;;5026633;28;20381;-63
2022/12/19 01:13:19;;;;;;;85.72;40.70;;;1.10;99.90;;;;;;5025857;28;20049;-64
2022/12/19 01:15:45;;;;;;;91.72;42.78;;;1.10;99.90;;;;;;5025549;28;20060;-64
2022/12/19 01:18:11;;;;;;;88.97;40.75;;;1.10;99.90;;;;;;5024780;28;20568;-63
2022/12/19 01:20:39;;;;;;;91.00;43.33;;;1.20;99.90;;;;;;5026662;28;20076;-64
2022/12/19 01:23:05;;;;;;;85.20;40.30;;;1.20;99.90;;;;;;5024914;28;20018;-64
2022/12/19 01:25:33;;;;;;;86.13;43.30;;;1.30;99.90;;;;;;5025728;28;20128;-65
2022/12/19 01:27:58;;;;;;;89.03;41.63;;;1.30;99.90;;;;;;5025224;28;20508;-64
2022/12/19 01:30:25;;;;;;;85.78;41.08;;;1.30;99.90;;;;;;5027386;28;20040;-64
2022/12/19 01:32:50;;;;;;;89.93;42.95;;;1.40;99.90;;;;;;5025068;28;20083;-62
2022/12/19 01:35:16;;;;;;;82.88;39.65;;;1.40;99.90;;;;;;5026041;28;20029;-64
2022/12/19 01:37:41;;;;;;;84.10;38.35;;;1.40;99.90;;;;;;5024420;28;20026;-64
2022/12/19 01:40:08;;;;;;;80.50;41.10;;;1.40;99.90;;;;;;5023861;28;20049;-64
2022/12/19 01:42:36;;;;;;;82.85;39.97;;;1.40;99.90;;;;;;5025874;28;20030;-64
2022/12/19 01:45:09;;;;;;;89.35;42.10;;;1.50;99.90;;;;;;5026272;28;20033;-63
2022/12/19 01:48:00;;;;;;;85.53;41.75;;;1.50;99.90;;;;;;5021356;28;20022;-64
2022/12/19 01:50:32;;;;;;;77.93;40.50;;;1.50;99.90;;;;;;5023825;28;20128;-63
2022/12/19 01:52:58;;;;;;;80.90;39.70;;;1.50;99.90;;;;;;5037393;28;20030;-64
2022/12/19 01:55:25;;;;;;;83.88;42.78;;;1.50;99.90;;;;;;5025094;28;20469;-64
2022/12/19 01:57:52;;;;;;;79.25;39.70;;;1.60;99.90;;;;;;5027976;28;20087;-64
2022/12/19 02:00:17;;;;;;;84.88;39.17;;;1.60;99.90;;;;;;5023121;28;20032;-64
2022/12/19 02:02:51;;;;;;;80.95;38.70;;;1.60;99.90;;;;;;5026019;28;20022;-64
2022/12/19 02:05:16;;;;;;;78.10;38.45;;;1.70;99.90;;;;;;5021399;28;20033;-64
2022/12/19 02:07:42;;;;;;;70.72;35.65;;;1.70;99.90;;;;;;5027854;28;20017;-64
2022/12/19 02:10:08;;;;;;;74.68;36.75;;;1.80;99.90;;;;;;5026916;28;20490;-64
2022/12/19 02:12:38;;;;;;;72.40;34.08;;;1.80;99.90;;;;;;5027921;28;20493;-64
2022/12/19 02:15:06;;;;;;;74.90;35.95;;;1.80;99.90;;;;;;5028702;28;20033;-64
2022/12/19 02:17:51;;;;;;;70.25;37.30;;;1.90;99.90;;;;;;5028925;28;20022;-64
2022/12/19 02:20:44;;;;;;;75.05;36.78;;;2.00;99.90;;;;;;5028506;28;20112;-64
2022/12/19 02:23:59;;;;;;;64.57;33.50;;;2.00;99.90;;;;;;5030181;28;20464;-64
2022/12/19 02:27:02;;;;;;;74.18;33.17;;;2.10;99.90;;;;;;5029485;28;20021;-64
2022/12/19 02:29:49;;;;;;;71.55;34.85;;;2.10;99.90;;;;;;5027851;28;20029;-64
2022/12/19 02:32:24;;;;;;;69.40;33.97;;;2.20;99.90;;;;;;5029027;28;20483;-63
2022/12/19 02:35:03;;;;;;;71.97;34.22;;;2.20;99.90;;;;;;5028274;28;20050;-64
2022/12/19 02:37:40;;;;;;;66.90;33.65;;;2.20;99.90;;;;;;5025977;28;20045;-64
2022/12/19 02:40:18;;;;;;;65.80;34.97;;;2.30;99.90;;;;;;5029302;28;20065;-64
2022/12/19 02:42:48;;;;;;;72.30;36.20;;;2.40;99.90;;;;;;5027628;28;20504;-64
2022/12/19 02:45:16;;;;;;;63.22;33.42;;;2.40;99.90;;;;;;5029780;28;20025;-63
2022/12/19 02:47:43;;;;;;;67.63;35.00;;;2.40;99.90;;;;;;5028106;28;20481;-64
2022/12/19 02:50:11;;;;;;;69.13;35.08;;;2.50;99.90;;;;;;5028553;28;20030;-64
2022/12/19 02:52:36;;;;;;;67.90;34.30;;;2.50;99.90;;;;;;5028881;28;20033;-63
2022/12/19 02:55:23;;;;;;;71.57;34.40;;;2.50;99.90;;;;;;5029826;28;20048;-63
2022/12/19 02:58:15;;;;;;;65.07;33.22;;;2.50;99.90;;;;;;5029331;28;20481;-64
2022/12/19 03:00:53;;;;;;;65.43;33.10;;;2.50;99.90;;;;;;5027693;28;20404;-64
2022/12/19 03:03:45;;;;;;;69.32;33.95;;;2.60;99.90;;;;;;5027609;28;20030;-64
2022/12/19 03:06:30;;;;;;;72.25;33.03;;;2.70;99.90;;;;;;5027492;28;20529;-63
2022/12/19 03:09:27;;;;;;;67.03;32.92;;;2.70;99.90;;;;;;5026855;28;20446;-64
2022/12/19 03:12:07;;;;;;;59.00;32.88;;;2.70;99.90;;;;;;5025533;28;20189;-63
2022/12/19 03:14:33;;;;;;;;;;;2.80;99.90;;;;;;5028458;28;20025;-63
2022/12/19 03:17:06;;;;;;;65.45;31.90;;;2.80;99.90;;;;;;5025561;28;19909;-64
2022/12/19 03:19:34;;;;;;;66.65;33.08;;;2.80;99.90;;;;;;5028577;28;20091;-64
2022/12/19 03:22:00;;;;;;;66.20;35.05;;;2.80;99.90;;;;;;5028097;28;20397;-64
2022/12/19 03:24:26;;;;;;;66.10;33.53;;;2.80;99.90;;;;;;5028632;28;20053;-64
2022/12/19 03:27:12;;;;;;;69.63;33.83;;;2.80;99.90;;;;;;5025218;28;20056;-64
2022/12/19 03:29:49;;;;;;;65.75;34.20;;;2.90;99.90;;;;;;5025516;28;20021;-63
2022/12/19 03:32:16;;;;;;;65.32;34.05;;;2.90;99.90;;;;;;5028325;28;20489;-63
2022/12/19 03:34:49;;;;;;;70.53;32.90;;;2.90;99.90;;;;;;5026700;28;20057;-63
2022/12/19 03:37:19;;;;;;;64.90;33.25;;;2.90;99.90;;;;;;5028146;28;20049;-63
2022/12/19 03:39:49;;;;;;;61.72;31.80;;;3.00;99.90;;;;;;5026393;28;20065;-64
2022/12/19 03:45:04;;;;;;;62.90;31.75;;;3.00;99.90;;;;;;5028386;28;20085;-63
2022/12/19 03:47:36;;;;;;;62.13;31.17;;;3.00;99.90;;;;;;5028161;28;20133;-63
2022/12/19 03:50:02;;;;;;;66.03;32.72;;;3.10;99.90;;;;;;5029016;28;20445;-63
2022/12/19 03:52:36;;;;;;;68.68;32.25;;;3.10;99.90;;;;;;5026164;28;20014;-63
2022/12/19 03:55:18;;;;;;;63.45;31.95;;;3.20;99.90;;;;;;5027412;28;20033;-64
2022/12/19 03:57:56;;;;;;;65.13;32.97;;;3.20;99.90;;;;;;5027531;28;20085;-64
2022/12/19 04:00:24;;;;;;;63.75;32.50;;;3.20;99.90;;;;;;5027456;28;20029;-64
2022/12/19 04:02:52;;;;;;;64.97;31.77;;;3.30;99.90;;;;;;5027465;28;20371;-63
2022/12/19 04:05:23;;;;;;;60.60;30.45;;;3.30;99.90;;;;;;5038907;28;20256;-64
2022/12/19 04:07:50;;;;;;;63.40;33.85;;;3.30;99.90;;;;;;5027651;28;20018;-63
2022/12/19 04:10:20;;;;;;;63.00;31.67;;;3.30;99.90;;;;;;5025089;28;20021;-64
2022/12/19 04:13:05;;;;;;;59.13;29.67;;;3.40;99.90;;;;;;5025362;28;20033;-64
2022/12/19 04:15:48;;;;;;;61.92;29.85;;;3.40;99.90;;;;;;5025532;28;20029;-63
2022/12/19 04:18:16;;;;;;;59.70;29.48;;;3.50;99.90;;;;;;5025549;28;20041;-63
2022/12/19 04:20:49;;;;;;;56.72;30.83;;;3.50;99.90;;;;;;5028017;28;20021;-63
2022/12/19 04:23:25;;;;;;;55.70;31.70;;;3.60;99.90;;;;;;5025128;28;20021;-64
2022/12/19 04:25:55;;;;;;;61.10;30.85;;;3.70;99.90;;;;;;5026707;28;20040;-64
2022/12/19 04:28:39;;;;;;;60.42;32.70;;;3.70;99.90;;;;;;5025518;28;20029;-63
2022/12/19 04:31:06;;;;;;;57.10;29.88;;;3.80;99.90;;;;;;5027698;28;20034;-64
2022/12/19 04:33:32;;;;;;;58.00;29.98;;;3.80;99.90;;;;;;5025962;28;20038;-63
2022/12/19 04:35:58;;;;;;;58.47;30.92;;;3.80;99.90;;;;;;5025253;28;20029;-64
2022/12/19 04:38:24;;;;;;;59.17;29.98;;;3.80;99.90;;;;;;5026741;28;20096;-64
2022/12/19 04:40:50;;;;;;;55.50;29.80;;;3.90;99.90;;;;;;5025756;28;21000;-64
2022/12/19 04:43:16;;;;;;;53.88;27.80;;;3.90;99.90;;;;;;5023722;28;20068;-63
2022/12/19 04:45:41;;;;;;;57.03;31.35;;;4.00;99.90;;;;;;5025436;28;20446;-64
2022/12/19 04:48:07;;;;;;;50.72;29.02;;;4.00;99.90;;;;;;5027461;28;20371;-63
2022/12/19 04:50:33;;;;;;;51.90;29.55;;;4.00;99.90;;;;;;5024690;28;20033;-64
2022/12/19 04:52:59;;;;;;;54.47;31.58;;;4.10;99.90;;;;;;5025127;28;20057;-64
2022/12/19 04:55:25;;;;;;;55.55;29.60;;;4.10;99.90;;;;;;5027030;28;20057;-63
2022/12/19 04:57:50;;;;;;;52.08;30.35;;;4.10;99.90;;;;;;5027101;28;20057;-64
2022/12/19 05:00:16;;;;;;;53.42;28.83;;;4.10;99.90;;;;;;5024361;28;20517;-64
2022/12/19 05:02:42;;;;;;;53.92;27.58;;;4.10;99.90;;;;;;5026926;28;20021;-64
2022/12/19 05:05:07;;;;;;;51.42;29.67;;;4.20;99.90;;;;;;5023813;28;20022;-63
2022/12/19 05:07:33;;;;;;;56.60;30.30;;;4.20;99.90;;;;;;5026825;28;20033;-64
2022/12/19 05:09:58;;;;;;;53.47;29.55;;;4.30;99.90;;;;;;5025569;28;20037;-64
2022/12/19 05:12:24;;;;;;;49.10;27.80;;;4.30;99.90;;;;;;5026657;28;20017;-64
2022/12/19 05:14:49;;;;;;;50.08;28.92;;;4.30;99.90;;;;;;5022761;28;20030;-63
2022/12/19 05:17:15;;;;;;;49.85;27.08;;;4.40;99.90;;;;;;5023022;28;20040;-64
2022/12/19 05:19:41;;;;;;;47.10;27.00;;;4.40;99.90;;;;;;5027550;28;20030;-63
2022/12/19 05:22:06;;;;;;;45.85;27.40;;;4.50;99.90;;;;;;5025734;28;20494;-64
2022/12/19 05:24:32;;;;;;;45.80;25.90;;;4.60;99.90;;;;;;5025843;28;20472;-64
2022/12/19 05:26:57;;;;;;;50.08;25.92;;;4.60;99.90;;;;;;5022171;28;20025;-63
2022/12/19 05:29:23;;;;;;;45.90;27.02;;;4.70;99.90;;;;;;5026496;28;20104;-64
2022/12/19 05:31:48;;;;;;;47.78;26.65;;;4.70;99.90;;;;;;5024906;28;20096;-64
2022/12/19 05:34:14;;;;;;;43.67;25.85;;;4.80;99.90;;;;;;5025148;28;20469;-64
2022/12/19 05:36:39;;;;;;;44.38;24.80;;;4.80;99.90;;;;;;5025366;28;20536;-64
2022/12/19 05:39:05;;;;;;;39.00;23.58;;;4.90;99.90;;;;;;5027025;28;20558;-63
2022/12/19 05:41:31;;;;;;;41.28;24.13;;;4.90;99.90;;;;;;5027062;28;20029;-64
2022/12/19 05:43:56;;;;;;;36.47;21.27;;;4.90;99.90;;;;;;5025598;28;20068;-63
2022/12/19 05:46:23;;;;;;;39.33;23.23;;;5.00;99.90;;;;;;5026900;28;20025;-64
2022/12/19 05:48:49;;;;;;;41.00;23.63;;;5.00;99.90;;;;;;5029958;28;20500;-64
2022/12/19 05:51:14;;;;;;;37.65;23.30;;;5.10;99.90;;;;;;5031081;28;20033;-64
2022/12/19 05:53:40;;;;;;;35.90;21.63;;;5.10;99.90;;;;;;5025335;28;20525;-64
2022/12/19 05:56:08;;;;;;;37.53;22.50;;;5.10;99.90;;;;;;5029963;28;20229;-64
2022/12/19 05:58:34;;;;;;;36.60;23.40;;;5.20;99.90;;;;;;5029074;28;20488;-63
2022/12/19 06:01:07;;;;;;;34.42;20.95;;;5.20;99.90;;;;;;5029578;28;20034;-63
2022/12/19 06:03:47;;;;;;;40.90;23.15;;;5.30;99.90;;;;;;5028387;28;20444;-64
2022/12/19 06:09:34;;;;;;;29.98;18.77;;;5.40;99.90;;;;;;5022755;28;20807;-63
2022/12/19 06:12:00;;;;;;;33.78;19.85;;;5.40;99.90;;;;;;5029061;28;20068;-64
2022/12/19 06:14:31;;;;;;;30.70;19.77;;;5.40;99.90;;;;;;5028516;28;20025;-63
2022/12/19 06:16:57;;;;;;;32.95;19.98;;;5.50;99.90;;;;;;5028808;28;20068;-65
2022/12/19 06:19:22;;;;;;;26.35;17.95;;;5.60;99.90;;;;;;5030470;28;20025;-64
2022/12/19 06:21:48;;;;;;;30.35;17.60;;;5.70;99.90;;;;;;5027868;28;20022;-63
2022/12/19 06:24:14;;;;;;;25.33;17.27;;;5.70;99.90;;;;;;5028887;28;20051;-64
2022/12/19 06:26:39;;;;;;;24.38;16.60;;;5.90;99.90;;;;;;5029131;28;20017;-64
2022/12/19 06:29:05;;;;;;;24.15;15.65;;;5.90;99.90;;;;;;5030465;28;20028;-64
2022/12/19 06:31:30;;;;;;;27.35;16.77;;;6.00;99.90;;;;;;5027879;28;20129;-64
2022/12/19 06:33:56;;;;;;;27.08;16.58;;;6.00;99.90;;;;;;5029802;28;20099;-63
2022/12/19 06:36:30;;;;;;;22.38;15.20;;;6.10;99.90;;;;;;5026697;28;20037;-64
2022/12/19 06:38:57;;;;;;;25.55;16.35;;;6.10;99.90;;;;;;5026159;28;20516;-64
2022/12/19 06:44:09;;;;;;;22.10;14.40;;;6.30;99.90;;;;;;5018771;28;20032;-63
2022/12/19 06:46:36;;;;;;;20.77;14.40;;;6.30;99.90;;;;;;5016557;28;20609;-63
2022/12/19 06:49:02;;;;;;;21.35;14.10;;;6.40;99.90;;;;;;5018363;28;20076;-63
2022/12/19 06:51:28;;;;;;;21.38;14.13;;;6.40;99.90;;;;;;5015782;28;20474;-64
2022/12/19 06:53:54;;;;;;;20.48;14.45;;;6.50;99.90;;;;;;5017103;28;20030;-63
2022/12/19 06:56:19;;;;;;;18.58;13.82;;;6.50;99.90;;;;;;5015949;28;20033;-63
2022/12/19 06:58:45;;;;;;;19.73;14.27;;;6.50;99.90;;;;;;5020356;28;20037;-63
2022/12/19 07:01:19;;;;;;;20.95;13.30;;;6.60;99.90;;;;;;5023538;28;20080;-63
2022/12/19 07:03:46;;;;;;;19.45;12.75;;;6.60;99.90;;;;;;5029005;28;20481;-64
2022/12/19 07:06:12;;;;;;;21.45;13.80;;;6.70;99.90;;;;;;5033771;28;20525;-64
2022/12/19 07:08:37;;;;;;;19.55;13.10;;;6.70;99.90;;;;;;5025796;28;20024;-63
2022/12/19 07:14:09;;;;;;;17.48;11.95;;;6.90;99.90;;;;;;5027851;28;20040;-64
2022/12/19 07:16:35;;;;;;;16.85;12.40;;;6.90;99.90;;;;;;5033941;28;20037;-64
2022/12/19 07:19:01;;;;;;;16.38;12.15;;;6.90;99.90;;;;;;5038927;28;20026;-64
2022/12/19 07:21:40;;;;;;;18.65;11.82;;;7.00;99.90;;;;;;5027426;28;20037;-64
2022/12/19 07:24:06;;;;;;;16.20;11.63;;;7.00;99.90;;;;;;5024279;28;20034;-63
2022/12/19 07:26:32;;;;;;;15.77;10.98;;;7.10;99.90;;;;;;5026734;28;20029;-64
2022/12/19 07:28:59;;;;;;;15.70;11.05;;;7.10;99.90;;;;;;5013726;28;20041;-63
2022/12/19 07:31:24;;;;;;;13.82;10.88;;;7.20;99.90;;;;;;5013589;28;20080;-64
2022/12/19 07:33:57;;;;;;;15.30;11.80;;;7.20;99.90;;;;;;5014894;28;20050;-63
2022/12/19 07:36:22;;;;;;;14.07;10.85;;;7.30;99.90;;;;;;5015417;28;20025;-63
2022/12/19 07:38:49;;;;;;;15.40;11.15;;;7.30;99.90;;;;;;5015698;28;20034;-63
2022/12/19 07:41:15;;;;;;;16.55;11.35;;;7.40;99.90;;;;;;5016681;28;20052;-63
2022/12/19 07:43:40;;;;;;;16.77;11.07;;;7.50;99.90;;;;;;5015868;28;20684;-64
2022/12/19 07:46:06;;;;;;;15.43;10.73;;;7.50;99.90;;;;;;5028400;28;20028;-64
2022/12/19 07:48:31;;;;;;;15.68;11.70;;;7.60;99.90;;;;;;5015260;28;20473;-64
2022/12/19 07:50:57;;;;;;;15.10;10.55;;;7.60;99.90;;;;;;5015609;28;20026;-64
2022/12/19 07:53:23;;;;;;;15.93;11.77;;;7.60;99.90;;;;;;5014076;28;20028;-64
2022/12/19 08:03:04;;;;;;;13.13;9.40;;;7.60;99.90;;;;;;4951492;29;20059;-64
2022/12/19 08:05:30;;;;;;;13.85;9.07;;;7.60;99.90;;;;;;5015306;28;20065;-64
2022/12/19 08:08:48;;;;;;;13.27;9.48;;;7.70;99.90;;;;;;5028769;28;20061;-65
2022/12/19 08:11:16;;;;;;;16.23;10.18;;;7.70;99.90;;;;;;4981955;28;20031;-64
2022/12/19 08:13:42;;;;;;;14.40;10.00;;;7.60;99.90;;;;;;4984665;28;20043;-64
2022/12/19 08:16:08;;;;;;;12.57;8.85;;;7.60;99.90;;;;;;5028689;28;20022;-64
2022/12/19 08:18:34;;;;;;;11.35;8.65;;;7.60;99.90;;;;;;5033147;28;20025;-64
2022/12/19 08:20:59;;;;;;;12.85;8.10;;;7.60;99.90;;;;;;5029897;28;20529;-64
2022/12/19 08:26:29;;;;;;;12.98;8.40;;;7.60;99.90;;;;;;5038806;28;20451;-64
2022/12/19 08:28:56;;;;;;;11.85;8.05;;;7.70;99.90;;;;;;5020907;28;20045;-65
2022/12/19 08:31:24;;;;;;;10.70;7.30;;;7.70;99.90;;;;;;5021053;28;20021;-65
2022/12/19 08:33:55;;;;;;;10.63;7.43;;;7.70;99.90;;;;;;5022252;28;20076;-64
2022/12/19 08:36:21;;;;;;;14.27;7.10;;;7.70;99.90;;;;;;5016387;28;20021;-64
2022/12/19 08:38:48;;;;;;;11.20;7.03;;;7.70;99.90;;;;;;5012621;28;20037;-65
2022/12/19 08:41:14;;;;;;;11.65;7.70;;;7.70;99.90;;;;;;5010380;28;20049;-65
2022/12/19 08:43:40;;;;;;;9.32;6.97;;;7.80;99.90;;;;;;5016242;28;20501;-65
2022/12/19 08:46:06;;;;;;;11.77;7.80;;;7.80;99.90;;;;;;5015801;28;20028;-65
2022/12/19 08:48:33;;;;;;;9.35;6.80;;;7.70;99.90;;;;;;5027610;28;20025;-65
2022/12/19 08:51:02;;;;;;;9.50;6.70;;;7.80;99.90;;;;;;5025285;28;20050;-65
2022/12/19 08:53:29;;;;;;;9.43;6.60;;;7.80;99.90;;;;;;5011447;28;20057;-64
2022/12/19 08:55:56;;;;;;;11.45;7.72;;;7.90;99.90;;;;;;5012008;28;20022;-65
2022/12/19 08:58:23;;;;;;;9.27;7.30;;;7.90;99.90;;;;;;5010922;28;20037;-64
2022/12/19 09:03:58;;;;;;;8.23;6.60;;;7.90;99.90;;;;;;4999876;28;20041;-64
2022/12/19 09:06:24;;;;;;;11.40;7.45;;;7.90;99.90;;;;;;5025250;28;20144;-65
2022/12/19 09:08:50;;;;;;;9.55;6.38;;;7.90;99.90;;;;;;5018280;28;20021;-65
2022/12/19 09:11:17;;;;;;;12.23;7.22;;;7.90;99.90;;;;;;5022892;28;20104;-64
2022/12/19 09:13:44;;;;;;;11.82;7.05;;;7.90;99.90;;;;;;5019153;28;20028;-64
2022/12/19 09:16:15;;;;;;;11.38;7.60;;;7.90;99.90;;;;;;5017965;28;20034;-64
2022/12/19 09:18:43;;;;;;;10.63;7.55;;;8.00;99.90;;;;;;5027756;28;20585;-65
2022/12/19 09:21:09;;;;;;;9.40;6.65;;;8.00;99.90;;;;;;5027496;28;20473;-64
2022/12/19 09:23:35;;;;;;;12.95;7.30;;;8.00;99.90;;;;;;5030352;28;20068;-65
2022/12/19 09:26:23;;;;;;;;;;;;;;;;;;;;;
2022/12/19 09:40:16;;;;;;;10.13;6.47;;;8.20;99.90;;;;;;4744533;30;20047;-64
2022/12/19 09:43:12;;;;;;;9.57;6.05;;;8.30;99.90;;;;;;4813155;29;20030;-64
2022/12/19 09:46:09;;;;;;;9.60;6.32;;;8.30;99.90;;;;;;4919822;28;20042;-64
2022/12/19 09:48:35;;;;;;;9.40;6.18;;;8.40;99.90;;;;;;5033559;28;20528;-65
2022/12/19 09:51:10;;;;;;;9.35;6.40;;;8.40;99.90;;;;;;4989623;28;20224;-64
2022/12/19 09:54:26;;;;;;;;;;;;;;;;;;;;;
2022/12/19 09:56:57;;;;;;;7.63;5.53;;;8.50;99.90;;;;;;4997183;28;20033;-64
2022/12/19 09:59:29;;;;;;;9.43;6.30;;;8.50;99.90;;;;;;4986732;28;20069;-64
2022/12/19 10:02:27;;;;;;;8.25;5.50;;;8.50;99.90;;;;;;4987615;28;20027;-64
2022/12/19 10:05:11;;;;;;;8.35;5.55;;;8.50;99.90;;;;;;4973602;28;20049;-64
2022/12/19 10:07:36;;;;;;;10.30;5.50;;;8.50;99.90;;;;;;4974430;28;20027;-64
2022/12/19 10:10:03;;;;;;;9.20;6.07;;;8.50;99.90;;;;;;4982504;28;20051;-64
2022/12/19 10:12:39;;;;;;;7.10;5.28;;;8.50;99.90;;;;;;4980832;28;20026;-63
2022/12/19 10:15:14;;;;;;;8.20;5.30;;;8.50;99.90;;;;;;4992418;28;20037;-63
2022/12/19 10:18:04;;;;;;;7.72;6.00;;;8.50;99.90;;;;;;4970598;28;20109;-64
2022/12/19 10:20:35;;;;;;;;;;;8.50;99.90;;;;;;4970665;28;20105;-64
2022/12/19 10:23:41;;;;;;;8.00;5.32;;;8.50;99.90;;;;;;4972182;28;19912;-63
2022/12/19 10:26:21;;;;;;;7.95;5.90;;;8.50;99.90;;;;;;4979384;28;20026;-63
2022/12/19 10:29:00;;;;;;;9.48;6.10;;;8.60;99.90;;;;;;4979897;28;20019;-64
2022/12/19 10:36:21;;;;;;;9.10;5.28;;;8.60;99.90;;;;;;5005097;28;20033;-64
2022/12/19 10:38:27;;;;;;;10.63;5.65;;;8.70;99.90;;;;;;4984483;28;20121;-65
2022/12/19 10:41:23;;;;;;;10.65;5.97;;;8.70;99.90;;;;;;5008089;28;20482;-64
2022/12/19 10:44:05;;;;;;;9.57;5.25;;;8.80;99.90;;;;;;5009150;28;20030;-64
2022/12/19 10:46:48;;;;;;;7.10;5.30;;;8.80;99.90;;;;;;5010561;28;20100;-64
2022/12/19 10:49:26;;;;;;;8.63;5.32;;;8.80;99.90;;;;;;5011406;28;20054;-64
2022/12/19 10:51:54;;;;;;;10.82;5.40;;;8.80;99.90;;;;;;5004696;28;20355;-64
2022/12/19 10:54:22;;;;;;;8.40;5.43;;;8.80;99.90;;;;;;4999811;28;20022;-65
2022/12/19 10:57:13;;;;;;;8.07;4.53;;;8.80;99.90;;;;;;5001209;28;20033;-65
2022/12/19 10:59:38;;;;;;;9.98;4.82;;;8.90;99.90;;;;;;5000709;28;20697;-65
2022/12/19 11:02:21;;;;;;;5.72;4.63;;;8.90;99.90;;;;;;5018027;28;20038;-64
2022/12/19 11:04:46;;;;;;;7.43;4.72;;;9.00;99.90;;;;;;4998224;28;20101;-64
2022/12/19 11:07:20;;;;;;;7.55;5.22;;;9.00;99.90;;;;;;5010899;28;20092;-64
2022/12/19 11:09:46;;;;;;;6.90;5.00;;;9.00;99.90;;;;;;5006809;28;20053;-64
2022/12/19 11:12:15;;;;;;;8.38;5.38;;;9.00;99.90;;;;;;5009463;28;20023;-64
2022/12/19 11:14:48;;;;;;;7.53;4.72;;;8.90;99.90;;;;;;5011293;28;20056;-64
2022/12/19 11:17:35;;;;;;;8.27;5.97;;;8.80;99.90;;;;;;5010427;28;20032;-64
2022/12/19 11:20:19;;;;;;;8.38;5.90;;;8.80;99.90;;;;;;5024621;28;20397;-65
2022/12/19 11:22:58;;;;;;;9.15;5.72;;;8.80;99.90;;;;;;5011520;28;20068;-65
2022/12/19 11:25:36;;;;;;;9.55;7.07;;;8.80;99.90;;;;;;5010540;28;20516;-65
2022/12/19 11:28:20;;;;;;;11.77;8.95;;;8.80;99.90;;;;;;5010050;28;20025;-65
2022/12/19 11:30:56;;;;;;;13.68;10.52;;;8.80;99.90;;;;;;5011878;28;20034;-65
2022/12/19 11:33:21;;;;;;;12.13;10.60;;;8.80;99.90;;;;;;5009381;28;20481;-64
2022/12/19 11:35:50;;;;;;;15.23;12.18;;;8.80;99.90;;;;;;5018996;28;20049;-64
2022/12/19 11:38:40;;;;;;;13.13;10.40;;;8.80;99.90;;;;;;5031893;28;20092;-64
2022/12/19 11:41:15;;;;;;;12.77;10.20;;;8.80;99.90;;;;;;5028679;28;20063;-64
2022/12/19 11:43:57;;;;;;;11.82;9.98;;;8.80;99.90;;;;;;5046039;28;20405;-64
2022/12/19 11:46:42;;;;;;;11.43;7.97;;;8.90;99.90;;;;;;5028239;28;20530;-65
2022/12/19 11:49:25;;;;;;;11.93;6.20;;;8.90;99.90;;;;;;5027664;28;20028;-64
2022/12/19 11:52:13;;;;;;;8.55;5.57;;;8.90;99.90;;;;;;5017544;28;20526;-64
2022/12/19 11:54:59;;;;;;;7.05;5.45;;;9.00;99.90;;;;;;5016013;28;20037;-64
2022/12/19 11:57:25;;;;;;;6.72;5.50;;;9.00;99.90;;;;;;5017452;28;20136;-65
2022/12/19 11:59:52;;;;;;;10.32;6.07;;;9.00;99.90;;;;;;5016511;28;20072;-65
2022/12/19 12:02:45;;;;;;;7.13;5.72;;;9.00;99.90;;;;;;5021172;28;20466;-65
2022/12/19 12:05:40;;;;;;;9.48;5.28;;;9.10;99.90;;;;;;5020053;28;20044;-64
2022/12/19 12:08:40;;;;;;;8.05;5.05;;;9.10;99.90;;;;;;5017403;28;20087;-64
2022/12/19 12:11:26;;;;;;;8.57;5.20;;;9.20;99.90;;;;;;5023972;28;20017;-65
2022/12/19 12:14:18;;;;;;;8.68;4.82;;;9.20;99.90;;;;;;5030525;28;20025;-65
2022/12/19 12:17:08;;;;;;;6.15;4.45;;;9.20;99.90;;;;;;5024972;28;20363;-64
2022/12/19 12:19:40;;;;;;;8.35;4.85;;;9.30;99.90;;;;;;5026211;28;20021;-64
2022/12/19 12:22:34;;;;;;;9.80;5.60;;;9.30;99.90;;;;;;5026095;28;20549;-65
2022/12/19 12:25:12;;;;;;;6.45;4.53;;;9.30;99.90;;;;;;5026961;28;20068;-64
2022/12/19 12:27:43;;;;;;;7.15;4.85;;;9.30;99.90;;;;;;5027171;28;20041;-65
2022/12/19 12:30:13;;;;;;;5.60;4.10;;;9.40;99.90;;;;;;5017343;28;20032;-64
2022/12/19 12:33:08;;;;;;;5.72;4.03;;;9.40;99.90;;;;;;5020469;28;20028;-65
2022/12/19 12:35:38;;;;;;;6.35;4.30;;;9.50;99.90;;;;;;5025280;28;20096;-64
2022/12/19 12:38:03;;;;;;;5.80;4.50;;;9.50;99.90;;;;;;5024929;28;20068;-65
2022/12/19 12:41:03;;;;;;;6.15;4.50;;;9.50;99.90;;;;;;5012601;28;20506;-64
2022/12/19 12:43:41;;;;;;;5.25;3.85;;;9.50;99.90;;;;;;5021739;28;20051;-64
2022/12/19 12:46:35;;;;;;;5.53;3.95;;;9.60;99.90;;;;;;5025527;28;20029;-65
2022/12/19 12:49:03;;;;;;;6.45;3.83;;;9.60;99.90;;;;;;5015740;28;20124;-64
2022/12/19 12:54:35;;;;;;;4.18;3.20;;;9.70;99.90;;;;;;5010288;28;20066;-65
2022/12/19 12:57:02;;;;;;;4.80;3.60;;;9.70;99.90;;;;;;5026744;28;20040;-64
2022/12/19 12:59:30;;;;;;;8.23;4.60;;;9.80;99.90;;;;;;5019111;28;20112;-64
2022/12/19 13:01:59;;;;;;;7.75;3.80;;;9.90;99.90;;;;;;5015589;28;20034;-65
2022/12/19 13:05:04;;;;;;;4.68;3.58;;;9.90;99.90;;;;;;5016961;28;20025;-64
2022/12/19 13:08:31;;;;;;;;;;;;;;;;;;;;;
2022/12/19 13:11:02;;;;;;;5.03;3.58;;;9.90;99.90;;;;;;5012188;28;20493;-64
2022/12/19 13:13:52;;;;;;;6.45;3.55;;;9.90;99.90;;;;;;5015978;28;20072;-64
2022/12/19 13:16:42;;;;;;;6.13;3.70;;;9.90;99.90;;;;;;5019470;28;20072;-64
2022/12/19 13:19:29;;;;;;;7.35;3.88;;;9.90;99.90;;;;;;5026665;28;20386;-65
2022/12/19 13:22:04;;;;;;;6.03;4.10;;;9.90;99.90;;;;;;5015171;28;20098;-65
2022/12/19 13:24:49;;;;;;;4.55;3.47;;;9.80;99.90;;;;;;5015268;28;20021;-64
2022/12/19 13:27:17;;;;;;;4.38;3.40;;;9.80;99.90;;;;;;5015477;28;20022;-64
2022/12/19 13:29:52;;;;;;;5.45;3.38;;;9.80;99.90;;;;;;5021360;28;20026;-64
2022/12/19 13:32:20;;;;;;;6.07;3.63;;;9.80;99.90;;;;;;5014232;28;20026;-64
2022/12/19 13:35:19;;;;;;;5.85;3.25;;;9.80;99.90;;;;;;5019296;28;20250;-64
2022/12/19 13:38:02;;;;;;;5.65;3.45;;;9.80;99.90;;;;;;5024180;28;20040;-64
2022/12/19 13:40:41;;;;;;;5.47;3.40;;;9.80;99.90;;;;;;5032257;28;20030;-64
2022/12/19 13:46:03;;;;;;;5.47;3.33;;;9.90;99.90;;;;;;5012374;28;20029;-65
2022/12/19 13:48:43;;;;;;;6.30;3.53;;;9.80;99.90;;;;;;5026313;28;20025;-64
2022/12/19 13:51:11;;;;;;;7.93;3.53;;;9.80;99.90;;;;;;5024792;28;20487;-64
2022/12/19 13:53:37;;;;;;;6.15;3.72;;;9.90;99.90;;;;;;5020831;28;20595;-64
2022/12/19 13:56:12;;;;;;;8.60;3.88;;;9.90;99.90;;;;;;5032882;28;20086;-64
2022/12/19 13:58:47;;;;;;;3.80;2.95;;;9.90;99.90;;;;;;5026506;28;20035;-65
2022/12/19 14:01:29;;;;;;;4.95;3.35;;;9.90;99.90;;;;;;5024839;28;20056;-64
2022/12/19 14:03:57;;;;;;;7.28;3.08;;;10.00;99.90;;;;;;5020816;28;20040;-64